createdAt,value
2022-10-11T00:00:11.177Z,9.93
2022-10-11T00:03:16.773Z,9.00
2022-10-11T00:05:55.393Z,8.45
2022-10-11T00:09:14.741Z,10.60
2022-10-11T00:11:54.632Z,6.00
2022-10-11T00:14:34.107Z,6.28
2022-10-11T00:17:35.898Z,14.45
2022-10-11T00:20:40.445Z,8.43
2022-10-11T00:23:17.099Z,10.98
2022-10-11T00:25:59.147Z,9.68
2022-10-11T00:28:38.688Z,8.48
2022-10-11T00:31:18.767Z,9.05
2022-10-11T00:33:57.618Z,7.80
2022-10-11T00:36:38.987Z,12.55
2022-10-11T00:39:17.290Z,9.00
2022-10-11T00:41:56.081Z,9.77
2022-10-11T00:44:36.175Z,8.68
2022-10-11T00:47:18.824Z,12.23
2022-10-11T00:50:21.302Z,14.68
2022-10-11T00:53:01.178Z,7.75
2022-10-11T00:56:00.229Z,9.07
2022-10-11T00:58:49.161Z,6.45
2022-10-11T01:01:32.239Z,12.75
2022-10-11T01:04:09.881Z,8.45
2022-10-11T01:06:48.982Z,10.68
2022-10-11T01:09:30.661Z,8.68
2022-10-11T01:12:15.894Z,9.57
2022-10-11T01:15:06.433Z,9.77
2022-10-11T01:17:49.477Z,9.48
2022-10-11T01:20:32.015Z,7.93
2022-10-11T01:23:54.400Z,9.32
2022-10-11T01:26:41.409Z,7.95
2022-10-11T01:29:39.220Z,14.15
2022-10-11T01:32:45.354Z,12.52
2022-10-11T01:35:31.226Z,15.65
2022-10-11T01:38:35.711Z,10.23
2022-10-11T01:41:23.673Z,8.40
2022-10-11T01:44:01.944Z,8.68
2022-10-11T01:46:41.010Z,10.32
2022-10-11T01:49:34.011Z,7.85
2022-10-11T01:52:11.874Z,7.80
2022-10-11T01:55:09.771Z,13.95
2022-10-11T01:57:59.487Z,14.38
2022-10-11T02:01:01.074Z,15.48
2022-10-11T02:04:04.864Z,10.82
2022-10-11T02:06:51.332Z,8.63
2022-10-11T02:09:35.565Z,9.35
2022-10-11T02:12:20.191Z,11.60
2022-10-11T02:14:58.722Z,8.23
2022-10-11T02:17:40.939Z,6.40
2022-10-11T02:20:22.122Z,13.07
2022-10-11T02:23:03.775Z,9.50
2022-10-11T02:25:42.888Z,8.82
2022-10-11T02:28:24.448Z,10.75
2022-10-11T02:31:07.190Z,14.68
2022-10-11T02:33:50.434Z,7.47
2022-10-11T02:36:37.456Z,12.13
2022-10-11T02:39:41.158Z,11.98
2022-10-11T02:42:19.234Z,10.48
2022-10-11T02:45:07.791Z,12.98
2022-10-11T02:47:47.889Z,12.50
2022-10-11T02:50:29.728Z,9.10
2022-10-11T02:53:33.744Z,9.85
2022-10-11T02:56:09.980Z,9.00
2022-10-11T02:59:14.560Z,11.63
2022-10-11T03:01:54.519Z,10.57
2022-10-11T03:04:34.285Z,10.20
2022-10-11T03:07:55.848Z,12.38
2022-10-11T03:10:34.438Z,11.20
2022-10-11T03:13:17.840Z,12.38
2022-10-11T03:16:03.213Z,12.18
2022-10-11T03:19:23.317Z,12.40
2022-10-11T03:22:22.358Z,9.07
2022-10-11T03:25:26.210Z,13.07
2022-10-11T03:28:05.691Z,9.38
2022-10-11T03:30:50.135Z,9.63
2022-10-11T03:33:31.026Z,11.15
2022-10-11T03:36:10.310Z,10.98
2022-10-11T03:38:49.034Z,9.85
2022-10-11T03:41:40.763Z,11.85
2022-10-11T03:44:27.354Z,11.15
2022-10-11T03:47:06.193Z,13.15
2022-10-11T03:49:46.808Z,9.30
2022-10-11T03:52:25.798Z,12.70
2022-10-11T03:55:02.378Z,10.85
2022-10-11T03:57:40.599Z,10.95
2022-10-11T04:00:17.486Z,9.55
2022-10-11T04:02:59.231Z,11.10
2022-10-11T04:05:36.840Z,13.07
2022-10-11T04:09:06.692Z,8.20
2022-10-11T04:11:45.478Z,13.02
2022-10-11T04:14:25.326Z,48.67
2022-10-11T04:17:06.627Z,9.48
2022-10-11T04:19:46.463Z,8.77
2022-10-11T04:22:50.640Z,11.90
2022-10-11T04:25:29.210Z,10.70
2022-10-11T04:28:10.483Z,10.98
2022-10-11T04:30:48.865Z,8.95
2022-10-11T04:33:27.894Z,8.60
2022-10-11T04:36:14.633Z,12.75
2022-10-11T04:39:21.794Z,10.93
2022-10-11T04:42:02.422Z,16.52
2022-10-11T04:44:41.761Z,9.15
2022-10-11T04:47:20.474Z,11.43
2022-10-11T04:49:59.393Z,10.25
2022-10-11T04:52:43.361Z,18.55
2022-10-11T04:55:22.147Z,10.25
2022-10-11T04:57:58.799Z,11.45
2022-10-11T05:00:39.754Z,11.00
2022-10-11T05:03:21.533Z,7.25
2022-10-11T05:06:17.155Z,11.45
2022-10-11T05:08:59.172Z,11.48
2022-10-11T05:11:39.184Z,13.80
2022-10-11T05:14:19.209Z,20.02
2022-10-11T05:16:57.021Z,12.80
2022-10-11T05:19:35.774Z,13.90
2022-10-11T05:22:18.922Z,10.63
2022-10-11T05:25:12.523Z,13.93
2022-10-11T05:27:50.720Z,15.10
2022-10-11T05:30:29.851Z,11.35
2022-10-11T05:33:11.864Z,13.55
2022-10-11T05:36:10.111Z,10.75
2022-10-11T05:38:54.016Z,9.02
2022-10-11T05:41:32.188Z,10.85
2022-10-11T05:44:10.295Z,12.38
2022-10-11T05:46:48.419Z,12.52
2022-10-11T05:49:29.251Z,15.18
2022-10-11T05:52:09.316Z,13.50
2022-10-11T05:54:48.311Z,14.07
2022-10-11T05:57:26.246Z,16.77
2022-10-11T06:00:08.359Z,11.30
2022-10-11T06:02:53.671Z,16.17
2022-10-11T06:05:31.974Z,13.88
2022-10-11T06:08:18.087Z,11.93
2022-10-11T06:10:56.250Z,15.85
2022-10-11T06:14:03.448Z,13.65
2022-10-11T06:20:44.158Z,12.40
2022-10-11T06:23:36.007Z,12.57
2022-10-11T06:26:31.370Z,11.65
2022-10-11T06:29:26.863Z,13.18
2022-10-11T06:35:40.114Z,12.63
2022-10-11T06:39:09.107Z,9.27
2022-10-11T06:42:05.206Z,12.88
2022-10-11T06:44:44.449Z,14.88
2022-10-11T06:47:52.085Z,10.38
2022-10-11T06:50:59.970Z,10.82
2022-10-11T06:53:57.828Z,13.23
2022-10-11T06:56:55.695Z,12.13
2022-10-11T06:59:32.150Z,11.98
2022-10-11T07:02:35.904Z,17.80
2022-10-11T07:05:32.507Z,25.45
2022-10-11T07:08:29.431Z,22.95
2022-10-11T07:11:25.997Z,12.00
2022-10-11T07:14:18.270Z,14.52
2022-10-11T07:17:13.504Z,9.90
2022-10-11T07:20:17.546Z,14.80
2022-10-11T07:23:27.040Z,12.93
2022-10-11T07:26:19.901Z,14.57
2022-10-11T07:29:15.347Z,10.43
2022-10-11T07:32:10.608Z,15.85
2022-10-11T07:35:06.228Z,12.18
2022-10-11T07:38:00.287Z,12.32
2022-10-11T07:40:43.478Z,10.20
2022-10-11T07:43:59.817Z,10.02
2022-10-11T07:46:52.878Z,14.43
2022-10-11T07:49:56.480Z,16.38
2022-10-11T07:53:18.972Z,9.63
2022-10-11T07:56:23.088Z,18.92
2022-10-11T07:59:14.479Z,12.93
2022-10-11T08:05:53.326Z,9.93
2022-10-11T08:09:00.743Z,12.75
2022-10-11T08:11:39.501Z,11.77
2022-10-11T08:14:54.637Z,11.27
2022-10-11T08:17:31.786Z,14.85
2022-10-11T08:20:11.146Z,17.38
2022-10-11T08:23:12.925Z,15.80
2022-10-11T08:26:07.791Z,14.43
2022-10-11T08:28:44.693Z,14.32
2022-10-11T08:31:48.385Z,16.92
2022-10-11T08:35:51.337Z,15.98
2022-10-11T08:38:55.322Z,16.23
2022-10-11T08:41:54.471Z,17.35
2022-10-11T08:45:12.427Z,14.70
2022-10-11T08:48:05.611Z,14.90
2022-10-11T08:50:52.483Z,19.42
2022-10-11T08:53:49.362Z,15.75
2022-10-11T08:56:41.943Z,16.10
2022-10-11T08:59:37.264Z,14.73
2022-10-11T09:03:02.838Z,16.98
2022-10-11T09:06:22.103Z,15.80
2022-10-11T09:09:56.050Z,13.13
2022-10-11T09:13:16.447Z,17.27
2022-10-11T09:16:27.422Z,13.77
2022-10-11T09:19:29.201Z,13.95
2022-10-11T09:22:42.601Z,14.13
2022-10-11T09:26:05.607Z,16.67
2022-10-11T09:29:00.052Z,13.77
2022-10-11T09:31:48.411Z,17.20
2022-10-11T09:34:37.405Z,18.38
2022-10-11T09:37:44.185Z,14.45
2022-10-11T09:40:37.860Z,16.13
2022-10-11T09:43:48.783Z,20.88
2022-10-11T09:46:41.164Z,16.25
2022-10-11T09:49:37.599Z,15.68
2022-10-11T09:52:24.648Z,17.48
2022-10-11T09:55:29.426Z,11.10
2022-10-11T09:58:34.745Z,15.82
2022-10-11T10:01:24.847Z,13.57
2022-10-11T10:04:13.083Z,14.77
2022-10-11T10:07:10.114Z,14.52
2022-10-11T10:09:56.344Z,16.02
2022-10-11T10:13:08.913Z,17.80
2022-10-11T10:15:56.675Z,11.05
2022-10-11T10:18:44.240Z,13.60
2022-10-11T10:21:37.556Z,27.92
2022-10-11T10:24:32.890Z,10.65
2022-10-11T10:27:19.105Z,15.10
2022-10-11T10:30:08.171Z,14.50
2022-10-11T10:33:21.054Z,12.43
2022-10-11T10:36:10.088Z,13.52
2022-10-11T10:38:55.991Z,11.52
2022-10-11T10:41:42.297Z,17.58
2022-10-11T10:44:37.948Z,12.30
2022-10-11T10:47:43.054Z,14.55
2022-10-11T10:50:54.379Z,16.88
2022-10-11T10:53:54.803Z,17.27
2022-10-11T10:56:46.191Z,11.25
2022-10-11T10:59:31.886Z,17.98
2022-10-11T11:02:43.479Z,18.50
2022-10-11T11:05:48.543Z,13.93
2022-10-11T11:08:49.735Z,16.73
2022-10-11T11:11:54.434Z,19.00
2022-10-11T11:15:05.316Z,17.42
2022-10-11T11:17:54.081Z,13.68
2022-10-11T11:20:58.990Z,29.05
2022-10-11T11:24:15.849Z,22.27
2022-10-11T11:30:37.157Z,16.02
2022-10-11T11:33:48.908Z,23.52
2022-10-11T11:39:46.076Z,16.15
2022-10-11T11:43:01.327Z,13.80
2022-10-11T11:45:47.467Z,15.25
2022-10-11T11:48:39.568Z,15.02
2022-10-11T11:51:32.925Z,14.93
2022-10-11T11:54:44.006Z,20.50
2022-10-11T11:57:48.551Z,14.98
2022-10-11T12:00:39.327Z,15.07
2022-10-11T12:03:49.631Z,15.32
2022-10-11T12:06:47.774Z,17.52
2022-10-11T12:10:08.436Z,12.45
2022-10-11T12:13:04.228Z,18.77
2022-10-11T12:16:12.535Z,14.05
2022-10-11T12:19:02.908Z,14.93
2022-10-11T12:22:34.058Z,22.13
2022-10-11T12:25:22.553Z,18.77
2022-10-11T12:28:26.775Z,17.17
2022-10-11T12:31:27.831Z,16.35
2022-10-11T12:34:36.549Z,20.77
2022-10-11T12:37:47.115Z,17.33
2022-10-11T12:40:44.713Z,16.08
2022-10-11T12:43:51.032Z,20.05
2022-10-11T12:46:44.205Z,14.50
2022-10-11T12:49:31.462Z,19.85
2022-10-11T12:52:18.395Z,14.68
2022-10-11T12:55:08.448Z,15.07
2022-10-11T12:58:01.278Z,22.05
2022-10-11T13:01:00.328Z,17.33
2022-10-11T13:03:53.327Z,23.52
2022-10-11T13:06:56.934Z,14.60
2022-10-11T13:09:48.787Z,15.02
2022-10-11T13:12:40.041Z,18.33
2022-10-11T13:15:26.456Z,19.63
2022-10-11T13:18:37.377Z,14.00
2022-10-11T13:21:48.262Z,15.05
2022-10-11T13:24:38.686Z,15.95
2022-10-11T13:27:26.600Z,17.85
2022-10-11T13:30:37.471Z,15.13
2022-10-11T13:33:34.538Z,20.88
2022-10-11T13:36:21.296Z,21.38
2022-10-11T13:39:32.450Z,23.00
2022-10-11T13:42:19.949Z,19.95
2022-10-11T13:45:31.456Z,16.98
2022-10-11T13:48:17.472Z,26.15
2022-10-11T13:51:09.441Z,14.20
2022-10-11T13:54:20.669Z,18.90
2022-10-11T13:57:37.507Z,18.17
2022-10-11T14:00:28.089Z,15.82
2022-10-11T14:03:15.067Z,15.90
2022-10-11T14:08:59.637Z,13.90
2022-10-11T14:11:45.789Z,11.68
2022-10-11T14:14:58.483Z,20.48
2022-10-11T14:20:38.881Z,17.52
2022-10-11T14:23:50.314Z,13.10
2022-10-11T14:26:37.451Z,16.15
2022-10-11T14:29:25.036Z,20.08
2022-10-11T14:32:14.124Z,21.58
2022-10-11T14:35:25.626Z,14.75
2022-10-11T14:38:19.827Z,19.25
2022-10-11T14:41:31.574Z,17.15
2022-10-11T14:44:22.109Z,26.33
2022-10-11T14:47:08.137Z,11.63
2022-10-11T14:49:54.025Z,15.05
2022-10-11T14:53:06.185Z,13.30
2022-10-11T14:55:52.990Z,12.32
2022-10-11T14:58:39.246Z,17.40
2022-10-11T15:01:54.377Z,14.68
2022-10-11T15:04:43.582Z,12.63
2022-10-11T15:07:31.005Z,11.18
2022-10-11T15:10:41.782Z,20.02
2022-10-11T15:13:42.208Z,18.38
2022-10-11T15:16:58.349Z,29.02
2022-10-11T15:19:46.751Z,42.00
2022-10-11T15:22:57.567Z,27.95
2022-10-11T15:25:43.962Z,17.38
2022-10-11T15:28:32.123Z,19.40
2022-10-11T15:31:18.929Z,23.38
2022-10-11T15:34:05.235Z,17.80
2022-10-11T15:36:51.713Z,19.55
2022-10-11T15:39:38.556Z,15.32
2022-10-11T15:42:25.481Z,16.42
2022-10-11T15:45:18.587Z,27.83
2022-10-11T15:48:05.679Z,12.60
2022-10-11T15:51:10.112Z,14.25
2022-10-11T15:53:55.872Z,16.88
2022-10-11T15:56:43.323Z,14.93
2022-10-11T15:59:39.142Z,16.45
2022-10-11T16:02:50.438Z,11.32
2022-10-11T16:05:36.314Z,18.17
2022-10-11T16:08:22.995Z,29.83
2022-10-11T16:11:09.567Z,19.50
2022-10-11T16:13:56.417Z,21.13
2022-10-11T16:16:44.642Z,20.23
2022-10-11T16:19:30.691Z,20.98
2022-10-11T16:22:17.263Z,15.73
2022-10-11T16:25:22.496Z,17.52
2022-10-11T16:28:37.836Z,26.17
2022-10-11T16:31:24.217Z,20.83
2022-10-11T16:34:11.173Z,32.92
2022-10-11T16:37:01.279Z,31.73
2022-10-11T16:39:47.643Z,25.65
2022-10-11T16:42:36.020Z,36.17
2022-10-11T16:45:22.843Z,24.85
2022-10-11T16:48:08.640Z,28.23
2022-10-11T16:50:54.812Z,32.67
2022-10-11T16:53:40.782Z,29.83
2022-10-11T16:56:28.052Z,25.95
2022-10-11T16:59:14.439Z,24.10
2022-10-11T17:02:00.362Z,50.75
2022-10-11T17:04:46.634Z,42.88
2022-10-11T17:07:57.726Z,31.90
2022-10-11T17:11:09.672Z,83.35
2022-10-11T17:13:56.490Z,45.50
2022-10-11T17:16:45.610Z,31.45
2022-10-11T17:19:35.070Z,24.27
2022-10-11T17:22:51.644Z,27.05
2022-10-11T17:25:58.390Z,37.97
2022-10-11T17:28:44.573Z,64.35
2022-10-11T17:31:30.843Z,48.72
2022-10-11T17:34:42.476Z,40.88
2022-10-11T17:37:28.334Z,34.60
2022-10-11T17:40:15.070Z,19.38
2022-10-11T17:43:01.408Z,18.17
2022-10-11T17:45:54.433Z,14.48
2022-10-11T17:48:40.673Z,15.85
2022-10-11T17:51:28.565Z,15.70
2022-10-11T17:54:16.443Z,17.60
2022-10-11T17:57:02.952Z,21.85
2022-10-11T17:59:49.060Z,23.50
2022-10-11T18:02:35.681Z,19.50
2022-10-11T18:05:21.899Z,15.07
2022-10-11T18:08:08.259Z,20.40
2022-10-11T18:10:54.329Z,15.30
2022-10-11T18:13:48.351Z,15.35
2022-10-11T18:16:35.340Z,16.30
2022-10-11T18:19:21.460Z,14.40
2022-10-11T18:22:07.710Z,18.08
2022-10-11T18:25:07.531Z,14.13
2022-10-11T18:27:58.703Z,20.27
2022-10-11T18:31:13.335Z,29.35
2022-10-11T18:33:59.494Z,34.15
2022-10-11T18:36:45.606Z,35.13
2022-10-11T18:39:57.369Z,29.23
2022-10-11T18:42:43.463Z,24.53
2022-10-11T18:45:29.529Z,32.65
2022-10-11T18:48:15.771Z,29.13
2022-10-11T18:51:12.494Z,35.55
2022-10-11T18:53:59.050Z,37.78
2022-10-11T18:56:45.131Z,31.98
2022-10-11T18:59:32.431Z,38.88
2022-10-11T19:02:18.384Z,34.20
2022-10-11T19:05:06.394Z,29.75
2022-10-11T19:08:18.943Z,30.02
2022-10-11T19:11:09.071Z,36.83
2022-10-11T19:13:56.545Z,34.83
2022-10-11T19:16:46.240Z,35.45
2022-10-11T19:19:33.599Z,30.98
2022-10-11T19:22:44.738Z,39.17
2022-10-11T19:25:30.668Z,37.03
2022-10-11T19:28:16.817Z,38.38
2022-10-11T19:31:04.614Z,37.63
2022-10-11T19:34:16.665Z,35.28
2022-10-11T19:37:05.136Z,36.33
2022-10-11T19:39:51.482Z,52.83
2022-10-11T19:43:02.806Z,35.08
2022-10-11T19:45:49.180Z,34.28
2022-10-11T19:48:38.643Z,31.65
2022-10-11T19:51:25.998Z,34.15
2022-10-11T19:54:36.946Z,32.20
2022-10-11T19:57:27.490Z,36.88
2022-10-11T20:00:51.894Z,40.25
2022-10-11T20:06:45.323Z,27.00
2022-10-11T20:09:42.421Z,39.65
2022-10-11T20:12:34.667Z,30.85
2022-10-11T20:15:20.786Z,29.40
2022-10-11T20:18:07.004Z,28.30
2022-10-11T20:20:54.022Z,30.70
2022-10-11T20:24:08.482Z,28.75
2022-10-11T20:26:54.886Z,27.88
2022-10-11T20:30:05.739Z,33.63
2022-10-11T20:32:51.532Z,30.70
2022-10-11T20:35:38.049Z,22.20
2022-10-11T20:38:24.099Z,17.85
2022-10-11T20:41:11.766Z,20.33
2022-10-11T20:43:58.235Z,19.67
2022-10-11T20:46:44.402Z,23.88
2022-10-11T20:49:30.705Z,22.40
2022-10-11T20:52:41.730Z,20.58
2022-10-11T20:56:18.742Z,20.25
2022-10-11T20:59:29.845Z,20.98
2022-10-11T21:02:18.995Z,30.35
2022-10-11T21:05:06.055Z,25.20
2022-10-11T21:07:53.198Z,28.85
2022-10-11T21:10:39.285Z,25.48
2022-10-11T21:13:25.596Z,25.55
2022-10-11T21:16:15.839Z,23.08
2022-10-11T21:19:02.262Z,26.20
2022-10-11T21:21:52.696Z,33.47
2022-10-11T21:25:17.166Z,29.02
2022-10-11T21:28:04.147Z,32.03
2022-10-11T21:30:50.194Z,29.02
2022-10-11T21:33:36.511Z,33.13
2022-10-11T21:36:23.168Z,26.13
2022-10-11T21:39:09.454Z,25.48
2022-10-11T21:41:56.653Z,28.02
2022-10-11T21:44:43.616Z,33.25
2022-10-11T21:47:54.813Z,35.15
2022-10-11T21:50:40.724Z,30.13
2022-10-11T21:53:26.814Z,39.85
2022-10-11T21:56:12.930Z,30.38
2022-10-11T21:58:59.485Z,39.20
2022-10-11T22:01:45.340Z,24.20
2022-10-11T22:04:31.282Z,25.73
2022-10-11T22:07:17.573Z,30.40
2022-10-11T22:10:03.788Z,15.65
2022-10-11T22:12:49.785Z,26.10
2022-10-11T22:15:36.587Z,23.45
2022-10-11T22:18:23.445Z,25.73
2022-10-11T22:21:13.519Z,23.25
2022-10-11T22:24:58.236Z,20.38
2022-10-11T22:27:44.224Z,20.88
2022-10-11T22:30:30.281Z,20.80
2022-10-11T22:33:17.056Z,26.65
2022-10-11T22:36:04.640Z,21.20
2022-10-11T22:38:51.554Z,30.58
2022-10-11T22:41:37.888Z,27.77
2022-10-11T22:44:24.007Z,27.20
2022-10-11T22:47:36.214Z,23.85
2022-10-11T22:50:22.803Z,27.85
2022-10-11T22:53:09.284Z,27.50
2022-10-11T22:55:55.728Z,28.60
2022-10-11T22:59:06.907Z,20.15
2022-10-11T23:01:52.913Z,21.17
2022-10-11T23:04:38.973Z,17.63
2022-10-11T23:07:49.941Z,17.88
2022-10-11T23:10:39.644Z,21.77
2022-10-11T23:13:25.787Z,19.83
2022-10-11T23:16:12.534Z,17.40
2022-10-11T23:18:58.529Z,20.48
2022-10-11T23:21:44.972Z,19.85
2022-10-11T23:24:30.736Z,19.35
2022-10-11T23:27:16.881Z,22.52
2022-10-11T23:30:03.925Z,20.52
2022-10-11T23:33:15.959Z,19.15
2022-10-11T23:36:08.208Z,20.52
2022-10-11T23:38:58.811Z,15.93
2022-10-11T23:41:44.734Z,25.35
2022-10-11T23:44:30.955Z,26.15
2022-10-11T23:47:43.053Z,21.75
2022-10-11T23:50:47.306Z,21.20
2022-10-11T23:53:33.530Z,25.27
2022-10-11T23:56:19.660Z,26.58
2022-10-11T23:59:05.694Z,21.88
